Flight Track Log - Related Links

Times and Time Zones

All times are in EST time to prevent confusion due to time zone crossing. See the EJA929P flight status page for this flight to view local times or setup timezone preferences in your user account.

Time Position Orientation Groundspeed Altitude Reporting Facility
EST Latitude Longitude Course Direction KTS MPH feet Rate Location/Type
Fri 02:26:12 PM 22.8397 -81.4067 North 491 565 40,000  Level Miami Center
Fri 02:27:00 PM 22.0887 -80.8844 North  Level Estimated
Fri 02:27:12 PM 22.9969 -81.3806 North 526 605 40,000  Level Miami Center
Fri 02:28:00 PM 22.2218 -80.8614 North  Level Estimated
Fri 02:28:12 PM 23.1522 -81.3544 North 549 632 40,000  Level Miami Center
Fri 02:29:00 PM 22.3549 -80.8384 North  Level Estimated
Fri 02:29:12 PM 23.3097 -81.3306 North 559 643 40,000  Level Miami Center
Fri 02:30:00 PM 22.4880 -80.8153 North  Level Estimated
Fri 02:30:12 PM 23.4650 -81.3019 10° North 559 643 40,000  Level Miami Center
Fri 02:31:12 PM 23.6161 -81.2800 North 559 643 40,000  Level Miami Center
Fri 02:32:12 PM 23.7714 -81.2536 North 559 643 40,000 -50 Level Miami Center
Fri 02:33:12 PM 23.9350 -81.2253 North 559 643 39,900  Descending Miami Center
Fri 02:34:12 PM 24.0861 -81.2011 North 548 631 40,000 50 Climbing Miami Center
Fri 02:35:12 PM 24.2314 -81.1583 15° North 543 625 40,000  Level Miami Center
Fri 02:36:12 PM 24.3675 -81.0717 30° Northeast 537 618 40,000  Level Miami Center
Fri 02:37:12 PM 24.5061 -80.9758 32° Northeast 560 644 40,000 350 Level Miami Center
Fri 02:38:12 PM 24.6403 -80.8822 32° Northeast 572 658 40,700 800 Climbing Miami Center
Fri 02:39:12 PM 24.7742 -80.7928 31° Northeast 572 658 41,600 850 Climbing Miami Center
Fri 02:40:12 PM 24.9061 -80.7053 31° Northeast 562 647 42,400 900 Climbing Miami Center
Fri 02:41:12 PM 25.0378 -80.6153 32° Northeast 556 640 43,400 900 Climbing Miami Center
Fri 02:42:12 PM 25.1656 -80.5253 33° Northeast 550 633 44,200 700 Climbing Miami Center
Fri 02:43:12 PM 25.2931 -80.4350 33° Northeast 550 633 44,800 400 Climbing Miami Center
Fri 02:44:12 PM 25.4206 -80.3467 32° Northeast 550 633 45,000 100 Climbing Miami Center
Fri 02:45:12 PM 25.5522 -80.2536 33° Northeast 550 633 45,000  Level Miami Center
Fri 02:46:12 PM 25.6858 -80.1631 31° Northeast 556 640 45,000  Level Miami Center
Fri 02:47:12 PM 25.8067 -80.0833 31° Northeast 563 648 45,000  Level Miami Center
Fri 02:48:12 PM 25.9339 -79.9919 33° Northeast 553 636 45,000  Level Miami Center
Fri 02:49:12 PM 26.0633 -79.9028 32° Northeast 548 631 45,000  Level Miami Center
Fri 02:50:12 PM 26.1947 -79.8111 32° Northeast 548 631 45,000  Level Miami Center
Fri 02:51:12 PM 26.3239 -79.7217 32° Northeast 543 625 45,000  Level Miami Center
Fri 02:52:12 PM 26.4636 -79.6231 32° Northeast 543 625 45,000  Level Miami Center
Fri 02:53:12 PM 26.5800 -79.5397 33° Northeast 548 631 45,000  Level Miami Center
Fri 02:54:12 PM 26.7239 -79.4406 32° Northeast 553 636 45,000  Level Miami Center
Fri 02:55:12 PM 26.8550 -79.3481 32° Northeast 553 636 45,000  Level Miami Center
Fri 02:56:12 PM 26.9714 -79.2644 33° Northeast 553 636 45,000  Level Miami Center
Fri 02:57:12 PM 27.0981 -79.1736 33° Northeast 553 636 45,000  Level Miami Center
Fri 02:58:12 PM 27.2458 -79.0692 32° Northeast 560 644 45,000  Level Miami Center
Fri 02:59:12 PM 27.3747 -78.9781 32° Northeast 551 634 45,000  Level Miami Center
Fri 03:00:12 PM 27.5008 -78.9217 22° Northeast 543 625 45,000  Level Miami Center
Fri 03:01:12 PM 27.6375 -78.8444 27° Northeast 545 627 45,000  Level Miami Center
Fri 03:02:12 PM 27.7911 -78.7603 26° Northeast 552 635 45,000 150 Level Miami Center
Fri 03:03:12 PM 27.9089 -78.6894 28° Northeast 547 629 45,300 450 Climbing Miami Center
Fri 03:04:12 PM 28.0456 -78.6092 27° Northeast 542 624 45,900 600 Climbing Miami Center
Fri 03:05:12 PM 28.1822 -78.5289 27° Northeast 542 624 46,500 500 Climbing Miami Center
Fri 03:06:12 PM 28.3106 -78.4506 28° Northeast 530 610 46,900 250 Climbing Miami Center
Fri 03:07:12 PM 28.4528 -78.4150 12° North 516 594 47,000 50 Climbing Miami Center
Fri 03:08:12 PM 28.5992 -78.4003 North 516 594 47,000  Level Miami Center
Fri 03:09:12 PM 28.7433 -78.3906 North 511 588 47,000  Level Miami Center
Fri 03:10:12 PM 28.8875 -78.3783 North 516 594 47,000  Level Miami Center
Fri 03:11:12 PM 29.0314 -78.3661 North 516 594 47,000  Level Miami Center
Fri 03:12:12 PM 29.1756 -78.3514 North 521 600 47,000  Level Miami Center
Fri 03:13:12 PM 29.3217 -78.3439 North 516 594 47,000  Level Miami Center
Fri 03:14:12 PM 29.4636 -78.3289 North 517 595 47,000  Level Miami Center
Fri 03:15:12 PM 29.6058 -78.3142 North 517 595 47,000  Level Miami Center
Fri 03:18:55 PM 30.1617 -78.2636 North 526 605 47,000  Level Jacksonville Center
Fri 03:19:55 PM 30.3072 -78.2517 North 526 605 47,000  Level Jacksonville Center
Fri 03:20:55 PM 30.4592 -78.2394 North 526 605 47,000  Level Jacksonville Center
Fri 03:21:55 PM 30.6006 -78.2253 North 521 600 47,000  Level Jacksonville Center
Fri 03:22:55 PM 30.7381 -78.2139 North 529 609 47,000  Level Jacksonville Center
Fri 03:23:55 PM 30.8836 -78.1994 North 529 609 47,000  Level Jacksonville Center
Fri 03:24:55 PM 31.0272 -78.1875 North 534 615 47,000  Level Jacksonville Center
Fri 03:25:55 PM 31.1517 -78.1667 North 534 615 47,000  Level Jacksonville Center
Fri 03:26:55 PM 31.2975 -78.1592 North 540 621 47,000  Level Jacksonville Center
Fri 03:27:55 PM 31.4411 -78.1469 North 540 621 47,000  Level Jacksonville Center
Fri 03:28:55 PM 31.5844 -78.1300 North 530 610 47,000  Level Jacksonville Center
Fri 03:29:55 PM 31.7303 -78.1225 North 530 610 47,000  Level Jacksonville Center
Fri 03:30:55 PM 31.8756 -78.1053 North 530 610 47,000 -300 Level Jacksonville Center
Fri 03:31:55 PM 32.0211 -78.0903 North 536 617 46,400 -700 Descending Jacksonville Center
Fri 03:32:55 PM 32.1692 -78.0800 North 536 617 45,600 -900 Descending Jacksonville Center
Fri 03:33:55 PM 32.3125 -78.0675 North 531 611 44,600 -1,550 Descending Jacksonville Center
Fri 03:34:55 PM 32.4622 -78.0547 North 536 617 42,500 -1,800 Descending Jacksonville Center
Fri 03:35:55 PM 32.6183 -78.0389 North 546 628 41,000 -1,150 Descending Jacksonville Center
Fri 03:36:55 PM 32.7722 -78.0258 North 551 634 40,200 -950 Descending Jacksonville Center
Fri 03:37:55 PM 32.9219 -78.0103 North 551 634 39,100 -1,050 Descending Jacksonville Center
Fri 03:38:55 PM 33.0694 -77.9972 North 540 621 38,100 -750 Descending Jacksonville Center
Fri 03:40:43 PM 33.3347 -77.9725 North 535 616 37,000 -395 Descending Washington Center
Fri 03:41:42 PM 33.4808 -77.9594 North 535 616 37,000  Level Washington Center
Fri 03:42:42 PM 33.6231 -77.9458 North 523 602 37,000  Level Washington Center
Fri 03:43:43 PM 33.7650 -77.9325 North 517 595 37,000  Level Washington Center
Fri 03:44:44 PM 33.9219 -77.9169 North 511 588 37,000  Level Washington Center
Fri 03:45:44 PM 34.0578 -77.9056 North 524 603 37,000  Level Washington Center
Fri 03:46:42 PM 34.2250 -77.8878 North 533 613 37,000  Level Washington Center
Fri 03:47:42 PM 34.3753 -77.8767 North 538 619 37,000  Level Washington Center
Fri 03:48:41 PM 34.5214 -77.8758 360° North 532 612 37,000  Level Washington Center
Fri 03:49:42 PM 34.6697 -77.8722 North 532 612 37,000  Level Washington Center
Fri 03:50:43 PM 34.8158 -77.8714 360° North 532 612 37,000  Level Washington Center
Fri 03:51:44 PM 34.9619 -77.8653 North 532 612 37,000  Level Washington Center
Fri 03:52:44 PM 35.1100 -77.8619 North 532 612 37,000  Level Washington Center
Fri 03:53:42 PM 35.2583 -77.8611 360° North 532 612 37,000  Level Washington Center
Fri 03:54:42 PM 35.4064 -77.8600 360° North 532 612 37,000  Level Washington Center
Fri 03:55:44 PM 35.5567 -77.8567 North 532 612 37,000 -148 Level Washington Center
Fri 03:56:44 PM 35.7028 -77.8531 North 532 612 36,700 -1,068 Descending Washington Center
Fri 03:57:42 PM 35.8489 -77.8522 360° North 532 612 34,900 -1,932 Descending Washington Center
Fri 03:58:42 PM 35.9950 -77.8511 360° North 532 612 32,900 -2,331 Descending Washington Center
Fri 03:59:43 PM 36.1389 -77.8503 360° North 527 606 30,200 -2,607 Descending Washington Center
Fri 04:00:44 PM 36.2850 -77.8467 North 527 606 27,600 -1,587 Descending Washington Center
Fri 04:01:44 PM 36.4250 -77.8456 360° North 508 585 27,000 -305 Descending Washington Center
Fri 04:02:42 PM 36.5606 -77.8442 360° North 494 568 27,000  Level Washington Center
Fri 04:03:42 PM 36.6983 -77.8431 360° North 494 568 27,000  Level Washington Center
Fri 04:04:43 PM 36.8361 -77.8392 North 494 568 27,000  Level Washington Center
Fri 04:05:42 PM 36.9717 -77.8381 360° North 494 568 27,000 -706 Level Washington Center
Fri 04:06:42 PM 37.1114 -77.8342 North 494 568 25,600 -1,587 Descending Washington Center
Fri 04:07:43 PM 37.2450 -77.8331 360° North 494 568 23,800 -1,537 Descending Washington Center
Fri 04:08:43 PM 37.3767 -77.8264 North 484 557 22,500 -1,613 Descending Washington Center
Fri 04:09:42 PM 37.5047 -77.7753 18° North 473 544 20,600 -1,750 Descending Washington Center
Fri 04:10:43 PM 37.6247 -77.7183 21° North 468 539 19,000 -1,574 Descending Washington Center
Fri 04:11:44 PM 37.7406 -77.6586 22° Northeast 455 524 17,400 -1,815 Descending Washington Center
Fri 04:12:42 PM 37.8497 -77.6064 21° North 434 499 15,400 -2,723 Descending Washington Center
Fri 04:13:43 PM 37.9528 -77.5564 21° North 409 471 12,000 -2,700 Descending Washington Center
Fri 04:14:42 PM 38.0411 -77.5164 20° North 393 452 10,000 -1,000 Descending Washington Center
Fri 04:15:43 PM 38.1208 -77.4764 22° Northeast 351 404 10,000  Level Washington Center
Fri 04:16:44 PM 38.1944 -77.4386 22° Northeast 305 351 10,000  Level Washington Center
Fri 04:17:44 PM 38.2639 -77.3978 25° Northeast 285 328 10,000 -101 Level Washington Center
Fri 04:18:43 PM 38.3333 -77.3572 25° Northeast 272 313 9,800 -800 Descending Washington Center
Fri 04:19:44 PM 38.4042 -77.3564 North 252 290 8,400 -1,361 Descending Washington Center
Fri 04:20:42 PM 38.4750 -77.3633 356° North 246 283 7,100 -1,311 Descending Washington Center
Fri 04:21:43 PM 38.5439 -77.3647 359° North 246 283 5,800 -1,033 Descending Washington Center
Fri 04:22:44 PM 38.6125 -77.3664 359° North 246 283 5,000 -403 Descending Washington Center
Fri 04:23:42 PM 38.6856 -77.3631 North 253 291 5,000 -378 Level Washington Center
Fri 04:25:07 PM 38.8000 -77.3500 North 257 296 4,100 -745 Descending Potomac TRACON
Fri 04:26:07 PM 38.8667 -77.3500 360° North 245 282 3,200 -550 Descending Potomac TRACON
Fri 04:27:07 PM 38.9333 -77.3500 360° North 257 296 3,000 -347 Descending Potomac TRACON
Fri 04:28:08 PM 39.0167 -77.3500 360° North 251 289 2,500 -472 Descending Potomac TRACON
Fri 04:29:14 PM 39.0667 -77.4000 322° Northwest 241 277 2,000 -298 Descending Potomac TRACON
Fri 04:30:09 PM 39.0333 -77.4333 218° Southwest 257 296 1,900 -522 Descending Potomac TRACON
Fri 04:31:09 PM 38.9833 -77.4333 180° South 157 181 1,000 -900 Descending Potomac TRACON
Fri 04:33:00 PM 38.9474 -77.4599 173° South  Level Estimated
Fri 04:40:00 PM 38.9474 -77.4599 350° North  Level Estimated

Login

Don't have an account? Register now (free) for customized features, flight alerts, and more!